Portada
METAR-TAF:

METAR-TAF

Aeropuertos :

Aeropuerto Internacional Murtala Muhammed

Lagos, Nigeria

latitud: 06-35N, longitud: 003-20E, altitud: 40 m

Observación

El informe se hizo hace 1 hora y 8 minutos, a las 13:00 UTC
Viento 3 kt del este
Temperatura 35°C
Humedad 50%
Presión 1011 hPa
Visibilidad: 6000 m

METAR: DNMM 171300Z 09003KT 6000 NSC 35/23 Q1011 NOSIG

Hora: 15:08 (14:08 UTC)

Pronóstico

El informe se hizo hace 3 horas y 8 minutos, a las 11:00 UTC
Pronóstico válido del 17 a las 12 UTC al 18 a las 18 UTC
Viento 10 kt del oeste-suroeste
Visibilidad: 7000 m
Cielo nuboso a una altura de 1300 ft
Evolucionando progresivamente
del 17 a las 17 UTC al 17 a las 19 UTC
Viento 2 kt con dirección variable
Escasas nubes a una altura de 1100 ft

TAF: DNMM 171100Z 1712/1818 24010KT 7000 BKN013 BECMG 1717/1719 VRB02KT FEW011

Observaciones y pronósticos meteorológicos de más de 4000 aeropuertos (mensajes METAR y TAF).

Los puntos amarillos y rojos representan las estaciones disponibles.

Ponga el ratón en el punto deseado para ver el nombre de la estación.

Haga clic para ver las observaciones y los pronósticos meteorológicos.

Para cambiar el mapa : haga clic en los botones verdes con una cruz de color negro para hacer un zoom, en el botón verde con un guión para alejar o en las flechas verdes para mapas adyacentes.


METAR-TAF: